createdAt,value
2019-03-18T00:00:56.757Z,53.20
2019-03-18T00:03:23.023Z,53.30
2019-03-18T00:05:49.407Z,53.30
2019-03-18T00:08:15.686Z,53.30
2019-03-18T00:10:41.962Z,53.40
2019-03-18T00:13:08.254Z,53.40
2019-03-18T00:15:34.901Z,53.50
2019-03-18T00:18:01.630Z,53.60
2019-03-18T00:20:28.002Z,53.50
2019-03-18T00:22:54.296Z,53.60
2019-03-18T00:25:20.670Z,53.70
2019-03-18T00:27:47.252Z,53.70
2019-03-18T00:30:17.966Z,53.80
2019-03-18T00:32:44.375Z,53.80
2019-03-18T00:35:10.846Z,53.80
2019-03-18T00:37:37.209Z,54.00
2019-03-18T00:40:15.065Z,53.90
2019-03-18T00:42:41.326Z,54.00
2019-03-18T00:45:14.625Z,53.90
2019-03-18T00:47:36.289Z,54.00
2019-03-18T00:50:12.592Z,54.20
2019-03-18T00:52:52.683Z,54.00
2019-03-18T00:55:19.031Z,53.90
2019-03-18T00:57:45.598Z,53.80
2019-03-18T01:00:16.059Z,53.80
2019-03-18T01:02:42.446Z,53.80
2019-03-18T01:05:09.584Z,53.70
2019-03-18T01:07:35.862Z,53.70
2019-03-18T01:10:05.163Z,53.60
2019-03-18T01:12:31.740Z,53.60
2019-03-18T01:14:58.581Z,53.70
2019-03-18T01:17:24.968Z,53.50
2019-03-18T01:19:51.372Z,53.70
2019-03-18T01:22:17.760Z,53.60
2019-03-18T01:24:44.146Z,53.50
2019-03-18T01:27:10.450Z,53.50
2019-03-18T01:29:36.856Z,53.50
2019-03-18T01:32:03.611Z,53.50
2019-03-18T01:34:30.012Z,53.40
2019-03-18T01:36:56.292Z,53.40
2019-03-18T01:39:22.590Z,53.50
2019-03-18T01:41:49.145Z,53.40
2019-03-18T01:44:15.567Z,53.40
2019-03-18T01:46:43.239Z,53.40
2019-03-18T01:49:09.615Z,53.40
2019-03-18T01:51:36.098Z,53.50
2019-03-18T01:54:02.570Z,53.50
2019-03-18T01:56:29.055Z,53.40
2019-03-18T01:58:55.444Z,53.30
2019-03-18T02:01:21.859Z,53.30
2019-03-18T02:03:48.245Z,53.40
2019-03-18T02:06:14.642Z,53.30
2019-03-18T02:08:40.920Z,53.30
2019-03-18T02:11:07.430Z,53.40
2019-03-18T02:13:34.903Z,53.30
2019-03-18T02:16:01.216Z,53.30
2019-03-18T02:18:27.603Z,53.20
2019-03-18T02:20:53.993Z,53.20
2019-03-18T02:23:20.472Z,53.30
2019-03-18T02:25:46.870Z,53.30
2019-03-18T02:28:13.167Z,53.30
2019-03-18T02:30:39.691Z,53.30
2019-03-18T02:33:06.360Z,53.80
2019-03-18T02:35:32.749Z,53.40
2019-03-18T02:37:59.267Z,53.30
2019-03-18T02:40:25.670Z,53.30
2019-03-18T02:42:52.271Z,53.30
2019-03-18T02:45:18.652Z,53.20
2019-03-18T02:47:46.984Z,53.20
2019-03-18T02:50:13.344Z,53.20
2019-03-18T02:52:39.850Z,53.20
2019-03-18T02:55:07.426Z,53.10
2019-03-18T02:57:33.966Z,53.30
2019-03-18T03:00:00.503Z,53.20
2019-03-18T03:02:27.179Z,53.20
2019-03-18T03:04:53.447Z,53.20
2019-03-18T03:07:20.254Z,53.20
2019-03-18T03:09:46.623Z,53.20
2019-03-18T03:12:13.009Z,53.20
2019-03-18T03:14:39.405Z,53.20
2019-03-18T03:17:05.796Z,53.10
2019-03-18T03:19:32.208Z,53.10
2019-03-18T03:21:58.598Z,53.10
2019-03-18T03:24:24.989Z,53.10
2019-03-18T03:26:51.647Z,53.20
2019-03-18T03:29:18.108Z,53.10
2019-03-18T03:31:44.464Z,53.10
2019-03-18T03:34:13.945Z,53.00
2019-03-18T03:36:39.128Z,53.00
2019-03-18T03:39:06.336Z,53.10
2019-03-18T03:41:32.806Z,53.20
2019-03-18T03:43:59.104Z,53.10
2019-03-18T03:46:41.805Z,53.10
2019-03-18T03:48:53.581Z,53.10
2019-03-18T03:51:19.951Z,53.10
2019-03-18T03:53:46.443Z,53.10
2019-03-18T03:56:12.831Z,53.00
2019-03-18T03:58:39.402Z,53.00
2019-03-18T04:01:06.092Z,52.90
2019-03-18T04:03:38.805Z,52.90
2019-03-18T04:06:01.088Z,52.90
2019-03-18T04:08:27.556Z,52.90
2019-03-18T04:10:53.967Z,53.00
2019-03-18T04:13:20.335Z,53.00
2019-03-18T04:15:46.832Z,53.10
2019-03-18T04:18:13.578Z,53.00
2019-03-18T04:20:40.079Z,53.00
2019-03-18T04:23:06.956Z,53.00
2019-03-18T04:25:33.720Z,53.00
2019-03-18T04:28:00.102Z,52.90
2019-03-18T04:30:26.527Z,52.90
2019-03-18T04:32:53.205Z,52.90
2019-03-18T04:35:19.905Z,52.90
2019-03-18T04:37:46.580Z,52.90
2019-03-18T04:40:13.084Z,52.90
2019-03-18T04:42:39.359Z,52.90
2019-03-18T04:45:08.135Z,52.90
2019-03-18T04:47:34.508Z,52.90
2019-03-18T04:50:00.899Z,52.90
2019-03-18T04:52:28.387Z,53.00
2019-03-18T04:54:55.018Z,52.90
2019-03-18T04:57:21.420Z,53.10
2019-03-18T04:59:47.727Z,53.00
2019-03-18T05:02:16.754Z,53.00
2019-03-18T05:04:43.799Z,53.10
2019-03-18T05:07:10.539Z,53.20
2019-03-18T05:09:36.820Z,53.10
2019-03-18T05:12:03.226Z,53.10
2019-03-18T05:14:29.595Z,53.10
2019-03-18T05:16:56.176Z,53.00
2019-03-18T05:19:22.556Z,53.10
2019-03-18T05:21:48.961Z,53.20
2019-03-18T05:24:15.335Z,53.20
2019-03-18T05:26:41.733Z,53.20
2019-03-18T05:29:08.207Z,53.20
2019-03-18T05:31:34.533Z,53.30
2019-03-18T05:34:01.612Z,53.30
2019-03-18T05:36:28.135Z,53.20
2019-03-18T05:38:54.441Z,53.20
2019-03-18T05:41:21.042Z,53.20
2019-03-18T05:43:47.454Z,53.30
2019-03-18T05:46:14.187Z,53.80
2019-03-18T05:48:40.937Z,53.40
2019-03-18T05:51:07.681Z,53.50
2019-03-18T05:53:35.548Z,53.40
2019-03-18T05:56:01.927Z,53.60
2019-03-18T05:58:28.334Z,53.60
2019-03-18T06:00:54.658Z,53.60
2019-03-18T06:03:20.961Z,53.60
2019-03-18T06:05:47.340Z,53.60
2019-03-18T06:08:15.008Z,53.70
2019-03-18T06:10:41.396Z,53.60
2019-03-18T06:13:07.792Z,53.70
2019-03-18T06:15:34.359Z,53.50
2019-03-18T06:18:01.004Z,53.60
2019-03-18T06:20:27.375Z,53.60
2019-03-18T06:22:55.003Z,53.60
2019-03-18T06:25:21.511Z,54.20
2019-03-18T06:27:47.899Z,54.00
2019-03-18T06:30:15.994Z,53.90
2019-03-18T06:32:42.665Z,54.00
2019-03-18T06:35:09.881Z,53.90
2019-03-18T06:37:36.270Z,53.80
2019-03-18T06:40:05.839Z,54.30
2019-03-18T06:42:32.228Z,54.30
2019-03-18T06:44:58.636Z,54.30
2019-03-18T06:47:25.017Z,54.10
2019-03-18T06:49:51.421Z,54.20
2019-03-18T06:52:17.805Z,54.30
2019-03-18T06:54:44.187Z,54.30
2019-03-18T06:57:10.586Z,54.70
2019-03-18T06:59:37.976Z,54.40
2019-03-18T07:02:04.916Z,54.50
2019-03-18T07:04:31.407Z,54.60
2019-03-18T07:06:57.913Z,54.90
2019-03-18T07:09:24.603Z,54.70
2019-03-18T07:11:51.103Z,54.80
2019-03-18T07:14:17.376Z,54.90
2019-03-18T07:16:43.999Z,55.30
2019-03-18T07:19:10.285Z,55.30
2019-03-18T07:21:36.683Z,55.00
2019-03-18T07:24:03.163Z,55.20
2019-03-18T07:26:29.468Z,55.10
2019-03-18T07:28:56.167Z,55.00
2019-03-18T07:31:22.560Z,55.10
2019-03-18T07:33:50.263Z,55.10
2019-03-18T07:36:16.535Z,55.20
2019-03-18T07:38:42.839Z,55.20
2019-03-18T07:41:09.563Z,55.60
2019-03-18T07:43:36.212Z,55.70
2019-03-18T07:46:02.951Z,55.80
2019-03-18T07:48:31.228Z,56.10
2019-03-18T07:50:57.964Z,55.90
2019-03-18T07:53:24.464Z,55.90
2019-03-18T07:55:50.872Z,55.90
2019-03-18T07:58:17.256Z,55.80
2019-03-18T08:00:43.718Z,55.60
2019-03-18T08:03:10.115Z,55.60
2019-03-18T08:05:36.470Z,55.70
2019-03-18T08:08:02.779Z,56.00
2019-03-18T08:10:29.267Z,56.10
2019-03-18T08:12:56.082Z,56.00
2019-03-18T08:15:22.346Z,56.00
2019-03-18T08:17:49.035Z,55.80
2019-03-18T08:20:15.672Z,55.80
2019-03-18T08:22:42.109Z,55.90
2019-03-18T08:25:09.163Z,55.70
2019-03-18T08:27:35.660Z,56.00
2019-03-18T08:30:05.948Z,56.20
2019-03-18T08:32:32.660Z,56.30
2019-03-18T08:34:59.315Z,56.10
2019-03-18T08:37:26.042Z,56.30
2019-03-18T08:39:52.789Z,56.00
2019-03-18T08:42:19.277Z,56.10
2019-03-18T08:44:45.848Z,56.10
2019-03-18T08:47:12.139Z,56.00
2019-03-18T08:49:38.447Z,55.70
2019-03-18T08:52:05.274Z,55.30
2019-03-18T08:54:31.575Z,55.20
2019-03-18T08:56:58.042Z,55.10
2019-03-18T08:59:24.759Z,55.10
2019-03-18T09:01:51.931Z,55.40
2019-03-18T09:04:18.651Z,55.10
2019-03-18T09:06:45.408Z,55.20
2019-03-18T09:09:11.918Z,55.30
2019-03-18T09:11:38.307Z,55.60
2019-03-18T09:14:04.919Z,57.10
2019-03-18T09:16:31.324Z,58.50
2019-03-18T09:19:07.976Z,58.10
2019-03-18T09:21:26.667Z,57.10
2019-03-18T09:23:52.956Z,56.20
2019-03-18T09:26:19.722Z,55.60
2019-03-18T09:28:46.082Z,55.20
2019-03-18T09:31:12.420Z,54.80
2019-03-18T09:33:38.860Z,54.30
2019-03-18T09:36:05.275Z,54.00
2019-03-18T09:38:31.756Z,53.80
2019-03-18T09:40:58.196Z,53.80
2019-03-18T09:43:24.576Z,53.80
2019-03-18T09:45:51.041Z,54.10
2019-03-18T09:48:17.502Z,54.30
2019-03-18T09:50:44.122Z,54.60
2019-03-18T09:53:10.688Z,54.80
2019-03-18T09:55:37.100Z,54.90
2019-03-18T09:58:03.683Z,55.70
2019-03-18T10:00:30.115Z,56.00
2019-03-18T10:02:56.507Z,56.10
2019-03-18T10:05:22.819Z,57.10
2019-03-18T10:07:49.225Z,59.10
2019-03-18T10:10:15.917Z,60.20
2019-03-18T10:12:42.351Z,59.20
2019-03-18T10:15:11.620Z,57.40
2019-03-18T10:17:38.129Z,55.10
2019-03-18T10:20:06.195Z,53.20
2019-03-18T10:22:35.839Z,51.90
2019-03-18T10:25:04.078Z,51.60
2019-03-18T10:27:30.480Z,52.60
2019-03-18T10:29:56.867Z,51.90
2019-03-18T10:32:24.349Z,52.20
2019-03-18T10:34:50.752Z,52.20
2019-03-18T10:37:17.411Z,53.60
2019-03-18T10:39:43.710Z,56.30
2019-03-18T10:42:10.084Z,57.40
2019-03-18T10:44:36.503Z,58.00
2019-03-18T10:47:03.116Z,57.10
2019-03-18T10:49:29.519Z,54.80
2019-03-18T10:51:55.896Z,51.30
2019-03-18T10:54:30.776Z,48.50
2019-03-18T10:56:53.751Z,46.60
2019-03-18T10:59:20.451Z,45.90
2019-03-18T11:01:47.122Z,45.50
2019-03-18T11:04:13.671Z,45.20
2019-03-18T11:06:40.080Z,45.30
2019-03-18T11:09:06.559Z,45.90
2019-03-18T11:11:32.859Z,46.40
2019-03-18T11:13:59.509Z,47.10
2019-03-18T11:16:25.908Z,47.00
2019-03-18T11:18:52.648Z,47.00
2019-03-18T11:21:19.161Z,47.30
2019-03-18T11:23:45.742Z,47.60
2019-03-18T11:26:12.142Z,47.80
2019-03-18T11:28:38.618Z,48.50
2019-03-18T11:31:05.313Z,48.40
2019-03-18T11:33:31.597Z,48.80
2019-03-18T11:35:58.003Z,49.10
2019-03-18T11:38:24.755Z,49.00
2019-03-18T11:40:51.052Z,48.80
2019-03-18T11:43:17.531Z,46.60
2019-03-18T11:45:44.032Z,45.00
2019-03-18T11:48:10.346Z,45.10
2019-03-18T11:50:36.808Z,45.80
2019-03-18T11:53:13.803Z,46.90
2019-03-18T11:55:31.990Z,47.50
2019-03-18T11:57:58.388Z,46.40
2019-03-18T12:00:25.481Z,44.40
2019-03-18T12:02:52.002Z,44.40
2019-03-18T12:05:22.900Z,43.80
2019-03-18T12:07:49.820Z,43.00
2019-03-18T12:10:17.097Z,42.80
2019-03-18T12:12:44.595Z,43.20
2019-03-18T12:15:16.486Z,43.00
2019-03-18T12:17:43.467Z,43.60
2019-03-18T12:20:23.682Z,44.30
2019-03-18T12:22:40.052Z,44.10
2019-03-18T12:25:07.940Z,43.70
2019-03-18T12:27:34.743Z,43.40
2019-03-18T12:30:18.782Z,44.30
2019-03-18T12:32:46.559Z,44.60
2019-03-18T12:35:13.092Z,45.60
2019-03-18T12:37:39.727Z,43.50
2019-03-18T12:40:08.690Z,45.10
2019-03-18T12:42:34.996Z,44.90
2019-03-18T12:45:08.583Z,45.00
2019-03-18T12:47:33.975Z,44.80
2019-03-18T12:50:00.247Z,43.60
2019-03-18T12:52:26.577Z,42.00
2019-03-18T12:54:52.933Z,40.90
2019-03-18T12:57:19.267Z,41.00
2019-03-18T12:59:45.756Z,41.30
2019-03-18T13:02:12.264Z,41.30
2019-03-18T13:04:38.743Z,40.90
2019-03-18T13:07:05.143Z,38.70
2019-03-18T13:09:31.552Z,37.90
2019-03-18T13:11:58.113Z,38.40
2019-03-18T13:14:24.593Z,38.40
2019-03-18T13:16:51.206Z,38.40
2019-03-18T13:19:17.763Z,38.40
2019-03-18T13:21:44.326Z,38.30
2019-03-18T13:24:11.284Z,38.30
2019-03-18T13:26:37.779Z,38.80
2019-03-18T13:29:04.516Z,39.20
2019-03-18T13:31:30.923Z,38.70
2019-03-18T13:33:57.317Z,39.00
2019-03-18T13:36:25.409Z,40.50
2019-03-18T13:38:51.882Z,40.70
2019-03-18T13:41:18.291Z,40.50
2019-03-18T13:43:45.088Z,39.70
2019-03-18T13:46:11.637Z,40.20
2019-03-18T13:48:38.234Z,40.20
2019-03-18T13:51:05.090Z,41.70
2019-03-18T13:53:31.857Z,42.50
2019-03-18T13:55:58.270Z,43.10
2019-03-18T13:58:26.221Z,43.20
2019-03-18T14:00:52.624Z,42.30
2019-03-18T14:03:19.019Z,42.60
2019-03-18T14:05:45.584Z,42.60
2019-03-18T14:08:12.081Z,42.40
2019-03-18T14:10:38.795Z,41.70
2019-03-18T14:13:05.313Z,42.20
2019-03-18T14:15:31.901Z,40.80
2019-03-18T14:17:58.386Z,40.90
2019-03-18T14:20:26.514Z,41.20
2019-03-18T14:22:52.923Z,40.80
2019-03-18T14:25:19.399Z,40.10
2019-03-18T14:27:45.796Z,39.40
2019-03-18T14:30:18.442Z,38.90
2019-03-18T14:32:45.247Z,36.40
2019-03-18T14:35:12.203Z,37.10
2019-03-18T14:37:39.106Z,37.30
2019-03-18T14:40:10.647Z,37.30
2019-03-18T14:42:37.511Z,37.10
2019-03-18T14:45:07.732Z,36.90
2019-03-18T14:47:34.111Z,36.60
2019-03-18T14:50:00.806Z,36.50
2019-03-18T14:52:27.188Z,36.40
2019-03-18T14:54:53.607Z,36.10
2019-03-18T14:57:20.317Z,36.30
2019-03-18T14:59:47.156Z,35.60
2019-03-18T15:02:13.677Z,36.10
2019-03-18T15:04:40.290Z,35.80
2019-03-18T15:07:06.762Z,35.50
2019-03-18T15:09:33.066Z,35.50
2019-03-18T15:11:59.472Z,36.00
2019-03-18T15:14:26.268Z,36.30
2019-03-18T15:16:52.750Z,36.40
2019-03-18T15:19:19.636Z,36.50
2019-03-18T15:21:57.515Z,36.50
2019-03-18T15:24:17.163Z,36.80
2019-03-18T15:26:43.144Z,37.10
2019-03-18T15:29:09.692Z,37.10
2019-03-18T15:31:36.392Z,37.30
2019-03-18T15:34:02.880Z,37.60
2019-03-18T15:36:29.279Z,37.60
2019-03-18T15:38:55.668Z,38.10
2019-03-18T15:41:21.980Z,38.10
2019-03-18T15:43:49.647Z,38.20
2019-03-18T15:46:16.328Z,38.30
2019-03-18T15:48:43.089Z,38.00
2019-03-18T15:51:09.736Z,38.10
2019-03-18T15:53:36.358Z,38.30
2019-03-18T15:56:03.186Z,38.40
2019-03-18T15:58:29.779Z,38.90
2019-03-18T16:00:56.192Z,39.40
2019-03-18T16:03:22.944Z,39.80
2019-03-18T16:05:49.856Z,40.00
2019-03-18T16:08:16.198Z,40.20
2019-03-18T16:10:42.683Z,40.00
2019-03-18T16:13:09.339Z,39.60
2019-03-18T16:15:35.979Z,39.40
2019-03-18T16:18:02.670Z,39.10
2019-03-18T16:20:29.162Z,38.80
2019-03-18T16:22:55.591Z,38.70
2019-03-18T16:25:22.170Z,38.60
2019-03-18T16:27:53.610Z,38.50
2019-03-18T16:30:28.187Z,38.50
2019-03-18T16:32:56.044Z,38.50
2019-03-18T16:35:22.435Z,38.40
2019-03-18T16:37:49.012Z,38.40
2019-03-18T16:40:22.255Z,38.20
2019-03-18T16:42:48.778Z,38.20
2019-03-18T16:45:16.397Z,38.10
2019-03-18T16:47:43.034Z,38.00
2019-03-18T16:50:15.756Z,37.90
2019-03-18T16:52:42.728Z,37.50
2019-03-18T16:55:09.821Z,38.20
2019-03-18T16:57:36.411Z,37.80
2019-03-18T17:00:05.886Z,37.70
2019-03-18T17:02:33.379Z,37.80
2019-03-18T17:04:59.803Z,37.80
2019-03-18T17:07:26.459Z,37.60
2019-03-18T17:09:53.039Z,37.80
2019-03-18T17:12:19.693Z,37.80
2019-03-18T17:14:46.213Z,37.70
2019-03-18T17:17:12.580Z,38.00
2019-03-18T17:19:38.900Z,38.20
2019-03-18T17:22:05.263Z,38.30
2019-03-18T17:24:31.676Z,38.50
2019-03-18T17:26:58.060Z,38.70
2019-03-18T17:29:24.559Z,38.80
2019-03-18T17:31:50.937Z,39.00
2019-03-18T17:34:17.451Z,39.20
2019-03-18T17:36:44.099Z,39.40
2019-03-18T17:39:10.604Z,39.60
2019-03-18T17:41:37.332Z,39.90
2019-03-18T17:44:03.862Z,40.20
2019-03-18T17:46:30.182Z,40.40
2019-03-18T17:48:57.684Z,40.40
2019-03-18T17:51:24.192Z,40.50
2019-03-18T17:53:50.681Z,40.80
2019-03-18T17:56:29.373Z,40.70
2019-03-18T17:58:45.464Z,40.80
2019-03-18T18:01:11.952Z,40.90
2019-03-18T18:03:38.612Z,41.00
2019-03-18T18:06:04.998Z,41.10
2019-03-18T18:08:31.438Z,41.20
2019-03-18T18:10:57.804Z,41.20
2019-03-18T18:13:24.099Z,41.40
2019-03-18T18:15:50.623Z,41.60
2019-03-18T18:18:17.060Z,41.50
2019-03-18T18:20:43.483Z,41.50
2019-03-18T18:23:14.738Z,41.70
2019-03-18T18:25:38.563Z,41.80
2019-03-18T18:28:05.120Z,41.90
2019-03-18T18:30:31.705Z,41.90
2019-03-18T18:32:57.970Z,42.00
2019-03-18T18:35:24.389Z,42.10
2019-03-18T18:37:51.013Z,42.20
2019-03-18T18:40:25.772Z,42.30
2019-03-18T18:42:52.361Z,42.60
2019-03-18T18:45:21.271Z,42.50
2019-03-18T18:47:48.204Z,42.60
2019-03-18T18:50:14.732Z,42.70
2019-03-18T18:52:41.307Z,42.90
2019-03-18T18:55:09.651Z,43.00
2019-03-18T18:57:37.251Z,43.00
2019-03-18T19:00:15.735Z,43.10
2019-03-18T19:02:42.153Z,43.80
2019-03-18T19:05:13.127Z,43.40
2019-03-18T19:07:39.536Z,43.50
2019-03-18T19:10:09.704Z,43.50
2019-03-18T19:12:36.127Z,43.60
2019-03-18T19:15:05.297Z,43.70
2019-03-18T19:17:31.831Z,43.80
2019-03-18T19:19:58.314Z,43.80
2019-03-18T19:22:24.751Z,44.00
2019-03-18T19:24:51.160Z,44.10
2019-03-18T19:27:17.930Z,44.20
2019-03-18T19:29:44.323Z,44.80
2019-03-18T19:32:10.868Z,44.30
2019-03-18T19:34:57.390Z,44.40
2019-03-18T19:37:25.210Z,44.30
2019-03-18T19:39:51.955Z,44.50
2019-03-18T19:42:18.773Z,44.60
2019-03-18T19:44:45.247Z,45.00
2019-03-18T19:47:12.102Z,44.60
2019-03-18T19:49:38.839Z,44.70
2019-03-18T19:52:05.324Z,44.80
2019-03-18T19:54:31.814Z,44.80
2019-03-18T19:56:58.239Z,44.90
2019-03-18T19:59:24.548Z,45.00
2019-03-18T20:01:51.171Z,44.60
2019-03-18T20:04:17.777Z,45.00
2019-03-18T20:06:44.172Z,45.10
2019-03-18T20:09:10.690Z,45.10
2019-03-18T20:11:37.709Z,45.20
2019-03-18T20:14:04.524Z,45.40
2019-03-18T20:16:31.285Z,45.40
2019-03-18T20:18:57.891Z,45.40
2019-03-18T20:21:24.260Z,45.50
2019-03-18T20:24:00.396Z,45.60
2019-03-18T20:26:19.055Z,45.70
2019-03-18T20:28:45.356Z,45.70
2019-03-18T20:31:11.743Z,45.80
2019-03-18T20:33:38.335Z,45.80
2019-03-18T20:36:05.077Z,45.90
2019-03-18T20:38:31.467Z,45.90
2019-03-18T20:40:57.842Z,45.90
2019-03-18T20:43:24.218Z,46.00
2019-03-18T20:45:50.512Z,46.00
2019-03-18T20:48:17.210Z,46.10
2019-03-18T20:50:43.719Z,46.20
2019-03-18T20:53:10.087Z,46.20
2019-03-18T20:55:37.947Z,46.20
2019-03-18T20:58:04.346Z,46.20
2019-03-18T21:00:31.035Z,46.30
2019-03-18T21:02:57.552Z,46.30
2019-03-18T21:05:25.320Z,46.30
2019-03-18T21:07:52.252Z,46.40
2019-03-18T21:10:19.716Z,46.40
2019-03-18T21:12:46.313Z,46.50
2019-03-18T21:15:13.914Z,46.50
2019-03-18T21:17:40.291Z,46.60
2019-03-18T21:20:16.746Z,46.50
2019-03-18T21:22:43.185Z,46.60
2019-03-18T21:25:09.954Z,46.60
2019-03-18T21:27:36.350Z,46.70
2019-03-18T21:30:06.439Z,46.70
2019-03-18T21:32:32.939Z,46.80
2019-03-18T21:34:59.209Z,46.90
2019-03-18T21:37:26.597Z,46.90
2019-03-18T21:39:52.869Z,46.90
2019-03-18T21:42:19.367Z,47.00
2019-03-18T21:44:46.071Z,47.00
2019-03-18T21:47:12.573Z,47.60
2019-03-18T21:49:38.957Z,47.10
2019-03-18T21:52:05.463Z,47.20
2019-03-18T21:54:34.416Z,47.20
2019-03-18T21:57:00.166Z,47.20
2019-03-18T21:59:26.904Z,47.20
2019-03-18T22:01:53.391Z,47.30
2019-03-18T22:04:19.961Z,47.30
2019-03-18T22:06:46.340Z,47.40
2019-03-18T22:09:12.737Z,47.40
2019-03-18T22:11:39.202Z,47.50
2019-03-18T22:14:05.681Z,47.50
2019-03-18T22:16:32.165Z,47.60
2019-03-18T22:18:58.666Z,47.60
2019-03-18T22:21:25.055Z,47.70
2019-03-18T22:23:51.342Z,47.60
2019-03-18T22:26:17.700Z,47.70
2019-03-18T22:28:44.088Z,47.90
2019-03-18T22:31:11.450Z,47.80
2019-03-18T22:33:37.834Z,47.90
2019-03-18T22:36:04.583Z,48.00
2019-03-18T22:38:31.038Z,48.00
2019-03-18T22:40:57.306Z,48.10
2019-03-18T22:43:23.980Z,48.10
2019-03-18T22:45:50.243Z,48.20
2019-03-18T22:48:16.556Z,48.20
2019-03-18T22:50:43.263Z,48.20
2019-03-18T22:53:09.635Z,48.20
2019-03-18T22:55:36.245Z,48.10
2019-03-18T22:58:03.099Z,48.20
2019-03-18T23:00:34.503Z,48.50
2019-03-18T23:03:03.158Z,48.50
2019-03-18T23:05:29.431Z,48.50
2019-03-18T23:07:55.710Z,48.70
2019-03-18T23:10:22.088Z,48.90
2019-03-18T23:12:48.883Z,49.20
2019-03-18T23:15:15.687Z,49.30
2019-03-18T23:17:42.330Z,49.30
2019-03-18T23:20:08.919Z,49.30
2019-03-18T23:22:35.494Z,49.20
2019-03-18T23:25:07.191Z,49.20
2019-03-18T23:27:31.259Z,49.10
2019-03-18T23:29:57.879Z,49.20
2019-03-18T23:32:24.342Z,49.30
2019-03-18T23:34:50.703Z,49.10
2019-03-18T23:37:16.978Z,49.10
2019-03-18T23:39:43.371Z,49.10
2019-03-18T23:42:09.900Z,49.20
2019-03-18T23:44:36.471Z,49.20
2019-03-18T23:47:02.843Z,49.30
2019-03-18T23:49:29.215Z,49.30
2019-03-18T23:51:56.262Z,49.30
2019-03-18T23:54:23.054Z,49.30
2019-03-18T23:56:49.345Z,49.40
2019-03-18T23:59:15.714Z,49.40
